Time;durP1;ratioP1;P1;durP2;ratioP2;P2;SDS_P1;SDS_P2;PMS_P1;PMS_P2;Temp;Humidity;BMP_temperature;BMP_pressure;BME280_temperature;BME280_humidity;BME280_pressure;Samples;Min_cycle;Max_cycle;Signal;HPM_P1;HPM_P2
2023/05/13 00:01:37;;;;;;;3.97;3.67;;;19.30;35.90;;;;;;5042838;28;20210;-84
2023/05/13 00:04:04;;;;;;;3.90;3.60;;;19.20;35.80;;;;;;5059126;28;20154;-85
2023/05/13 00:06:30;;;;;;;4.07;3.67;;;19.20;35.90;;;;;;5042391;28;20246;-85
2023/05/13 00:08:56;;;;;;;4.13;3.72;;;19.30;35.90;;;;;;5042767;28;20173;-83
2023/05/13 00:11:22;;;;;;;4.00;3.70;;;19.20;35.90;;;;;;5058589;28;20165;-85
2023/05/13 00:13:50;;;;;;;3.85;3.55;;;19.20;35.90;;;;;;5058192;28;20180;-84
2023/05/13 00:16:16;;;;;;;4.10;3.80;;;19.20;35.90;;;;;;5058029;28;20248;-84
2023/05/13 00:18:42;;;;;;;3.60;3.30;;;19.20;35.90;;;;;;5041729;28;20245;-84
2023/05/13 00:21:10;;;;;;;4.05;3.65;;;19.30;36.00;;;;;;5060659;28;20671;-84
2023/05/13 00:23:38;;;;;;;4.53;3.88;;;19.30;36.00;;;;;;5045721;28;20211;-83
2023/05/13 00:26:03;;;;;;;4.40;4.00;;;19.20;36.00;;;;;;5045810;28;20532;-83
2023/05/13 00:28:29;;;;;;;4.53;4.13;;;19.20;36.00;;;;;;5079284;28;20162;-84
2023/05/13 00:30:55;;;;;;;3.90;3.60;;;19.20;36.00;;;;;;5062803;28;20169;-83
2023/05/13 00:33:23;;;;;;;4.57;4.00;;;19.20;36.00;;;;;;5062264;28;20150;-84
2023/05/13 00:35:51;;;;;;;4.47;4.07;;;19.20;36.00;;;;;;5062843;28;20615;-82
2023/05/13 00:38:20;;;;;;;4.35;3.95;;;19.20;36.00;;;;;;5079019;28;20224;-85
2023/05/13 00:40:48;;;;;;;4.28;3.80;;;19.20;36.00;;;;;;5062443;28;20283;-85
2023/05/13 00:43:14;;;;;;;4.30;3.90;;;19.20;36.00;;;;;;5062294;28;20241;-84
2023/05/13 00:45:41;;;;;;;4.47;4.07;;;19.20;36.00;;;;;;5061905;28;20177;-83
2023/05/13 00:48:07;;;;;;;4.20;3.90;;;19.20;36.00;;;;;;5062500;28;20199;-84
2023/05/13 00:50:45;;;;;;;4.40;4.00;;;19.20;36.00;;;;;;5062026;28;20538;-84
2023/05/13 00:53:12;;;;;;;4.13;3.72;;;19.20;36.00;;;;;;5061900;28;20248;-82
2023/05/13 00:55:42;;;;;;;4.28;3.88;;;19.20;36.00;;;;;;5079390;28;20154;-84
2023/05/13 00:58:11;;;;;;;4.10;3.70;;;19.20;36.70;;;;;;5045985;28;20193;-85
2023/05/13 01:00:52;;;;;;;3.95;3.65;;;19.20;36.00;;;;;;5061941;28;20161;-85
2023/05/13 01:03:24;;;;;;;4.13;3.72;;;19.20;36.00;;;;;;5079019;28;20157;-84
2023/05/13 01:06:03;;;;;;;4.40;4.00;;;19.20;36.10;;;;;;5062696;28;20622;-84
2023/05/13 01:08:52;;;;;;;4.32;3.92;;;19.20;36.00;;;;;;5046947;28;20165;-84
2023/05/13 01:11:22;;;;;;;4.18;3.80;;;19.20;36.10;;;;;;5065754;28;20150;-83
2023/05/13 01:13:48;;;;;;;4.03;3.72;;;19.20;36.00;;;;;;5062426;28;20160;-83
2023/05/13 01:16:22;;;;;;;4.30;3.90;;;19.20;36.10;;;;;;5062132;28;20215;-85
2023/05/13 01:18:52;;;;;;;4.63;4.15;;;19.20;36.10;;;;;;5077942;28;20693;-84
2023/05/13 01:21:27;;;;;;;4.03;3.72;;;19.10;36.10;;;;;;5046032;28;20166;-85
2023/05/13 01:23:53;;;;;;;4.45;4.05;;;19.20;36.10;;;;;;5044671;28;20171;-85
2023/05/13 01:26:20;;;;;;;4.18;3.78;;;19.20;36.10;;;;;;5061590;28;20154;-85
2023/05/13 01:28:47;;;;;;;4.78;3.90;;;19.20;36.10;;;;;;5045077;28;20162;-84
2023/05/13 01:31:14;;;;;;;4.20;3.80;;;19.10;36.10;;;;;;5060933;28;20154;-85
2023/05/13 01:33:42;;;;;;;4.32;3.92;;;19.10;36.10;;;;;;5045025;28;20166;-84
2023/05/13 01:36:12;;;;;;;3.90;3.60;;;19.10;36.10;;;;;;5044696;28;20548;-85
2023/05/13 01:38:39;;;;;;;4.43;4.03;;;19.10;36.10;;;;;;5060531;28;20193;-84
2023/05/13 01:41:04;;;;;;;4.18;3.88;;;19.10;36.10;;;;;;5074659;28;20157;-84
2023/05/13 01:43:30;;;;;;;4.25;3.85;;;19.10;36.10;;;;;;5057354;28;20161;-84
2023/05/13 01:45:59;;;;;;;3.97;3.60;;;19.10;36.10;;;;;;5074040;28;20157;-83
2023/05/13 01:48:25;;;;;;;4.20;3.80;;;19.10;36.20;;;;;;5041945;28;20173;-83
2023/05/13 01:50:51;;;;;;;4.30;3.90;;;19.20;36.20;;;;;;5057406;28;20181;-85
2023/05/13 01:53:17;;;;;;;4.20;3.90;;;19.10;36.20;;;;;;5073943;28;20182;-84
2023/05/13 01:55:43;;;;;;;4.28;3.97;;;19.20;36.20;;;;;;5057681;28;20185;-82
2023/05/13 01:58:09;;;;;;;4.00;3.65;;;19.10;36.20;;;;;;5057576;28;20237;-83
2023/05/13 02:00:35;;;;;;;4.30;3.90;;;19.10;36.20;;;;;;5057139;28;20145;-83
2023/05/13 02:03:00;;;;;;;4.40;4.00;;;19.10;36.20;;;;;;5056903;28;20165;-83
2023/05/13 02:05:26;;;;;;;4.95;3.90;;;19.00;36.20;;;;;;5057294;28;20165;-84
2023/05/13 02:07:51;;;;;;;4.00;3.70;;;19.10;36.30;;;;;;5057127;28;20248;-85
2023/05/13 02:10:17;;;;;;;4.38;3.80;;;19.10;36.30;;;;;;5073487;28;20177;-83
2023/05/13 02:12:43;;;;;;;4.15;3.83;;;19.10;36.20;;;;;;5073788;28;20193;-82
2023/05/13 02:15:09;;;;;;;4.47;4.07;;;19.10;36.30;;;;;;5056824;28;20169;-82
2023/05/13 02:17:35;;;;;;;3.88;3.58;;;19.10;36.30;;;;;;5056643;28;20239;-83
2023/05/13 02:20:01;;;;;;;3.97;3.67;;;19.10;36.40;;;;;;5073295;28;20252;-83
2023/05/13 02:22:26;;;;;;;4.30;3.90;;;19.10;36.30;;;;;;5056486;28;20165;-83
2023/05/13 02:24:52;;;;;;;4.25;3.90;;;19.10;36.30;;;;;;5074456;28;20154;-84
2023/05/13 02:27:19;;;;;;;3.80;3.50;;;19.10;36.40;;;;;;5056516;28;20164;-83
2023/05/13 02:29:46;;;;;;;3.92;3.63;;;19.10;36.40;;;;;;5074626;28;20173;-83
2023/05/13 02:32:12;;;;;;;3.95;3.65;;;19.10;36.40;;;;;;5074637;28;20164;-83
2023/05/13 02:34:37;;;;;;;3.92;3.63;;;19.10;36.40;;;;;;5074505;28;20157;-83
2023/05/13 02:37:03;;;;;;;3.85;3.55;;;19.10;36.40;;;;;;5056553;28;20252;-84
2023/05/13 02:39:29;;;;;;;4.25;3.85;;;19.10;36.40;;;;;;5073499;28;20207;-84
2023/05/13 02:41:56;;;;;;;4.10;3.80;;;19.00;36.40;;;;;;5073616;28;20192;-84
2023/05/13 02:44:22;;;;;;;4.13;3.72;;;19.10;36.40;;;;;;5072262;28;20145;-84
2023/05/13 02:46:48;;;;;;;4.20;3.80;;;19.00;36.40;;;;;;5073052;28;20518;-84
2023/05/13 02:49:13;;;;;;;4.22;3.92;;;19.10;36.50;;;;;;5074154;28;20181;-84
2023/05/13 02:51:39;;;;;;;4.30;3.90;;;19.10;37.10;;;;;;5056195;28;20194;-83
2023/05/13 02:54:06;;;;;;;4.20;3.90;;;19.10;36.40;;;;;;5056268;28;20161;-83
2023/05/13 02:56:31;;;;;;;4.15;3.75;;;19.10;36.40;;;;;;5072753;28;20248;-84
2023/05/13 02:58:57;;;;;;;4.00;3.70;;;19.10;36.40;;;;;;5055984;28;20288;-84
2023/05/13 03:01:25;;;;;;;4.22;3.85;;;19.00;36.40;;;;;;5056091;28;20237;-83
2023/05/13 03:03:51;;;;;;;3.80;3.50;;;19.10;36.50;;;;;;5056248;28;20202;-84
2023/05/13 03:06:16;;;;;;;4.18;3.72;;;19.00;36.40;;;;;;5055926;28;20563;-84
2023/05/13 03:08:42;;;;;;;4.18;3.58;;;19.00;36.50;;;;;;5055895;28;20164;-83
2023/05/13 03:11:07;;;;;;;4.22;3.72;;;19.00;36.50;;;;;;5055706;28;20236;-84
2023/05/13 03:13:33;;;;;;;4.20;3.80;;;19.00;36.50;;;;;;5055990;28;20184;-83
2023/05/13 03:15:59;;;;;;;3.63;3.33;;;18.90;36.40;;;;;;5055987;28;20232;-83
2023/05/13 03:18:25;;;;;;;4.40;4.00;;;19.00;36.50;;;;;;5055580;28;20562;-84
2023/05/13 03:20:51;;;;;;;4.25;3.85;;;19.00;36.50;;;;;;5055612;28;20187;-84
2023/05/13 03:23:17;;;;;;;4.00;3.70;;;19.10;36.50;;;;;;5039328;28;20172;-83
2023/05/13 03:25:43;;;;;;;4.35;3.92;;;19.00;36.50;;;;;;5072229;28;20146;-84
2023/05/13 03:28:08;;;;;;;4.30;3.90;;;19.00;36.50;;;;;;5072182;28;20161;-83
2023/05/13 03:30:34;;;;;;;4.30;3.90;;;19.00;36.50;;;;;;5073773;28;20231;-83
2023/05/13 03:33:00;;;;;;;4.43;4.03;;;19.00;36.50;;;;;;5055525;28;20211;-84
2023/05/13 03:35:25;;;;;;;4.25;3.85;;;19.00;36.60;;;;;;5039351;28;20189;-84
2023/05/13 03:37:51;;;;;;;4.35;3.95;;;19.00;36.60;;;;;;5055841;28;20604;-83
2023/05/13 03:40:17;;;;;;;4.10;3.78;;;19.00;36.50;;;;;;5055531;28;20150;-83
2023/05/13 03:42:43;;;;;;;4.78;3.80;;;19.00;36.50;;;;;;5055313;28;20566;-82
2023/05/13 03:45:09;;;;;;;4.00;3.60;;;19.00;36.60;;;;;;5038790;28;20165;-83
2023/05/13 03:47:37;;;;;;;4.30;3.90;;;19.00;36.60;;;;;;5073304;28;20201;-83
2023/05/13 03:50:04;;;;;;;4.00;3.70;;;19.00;36.60;;;;;;5072424;28;20165;-82
2023/05/13 03:52:29;;;;;;;4.00;3.70;;;19.00;36.60;;;;;;5073398;28;20176;-83
2023/05/13 03:54:55;;;;;;;3.85;3.45;;;19.00;36.60;;;;;;5074397;28;20153;-83
2023/05/13 03:57:21;;;;;;;4.05;3.67;;;18.90;36.60;;;;;;5075913;28;20552;-82
2023/05/13 03:59:46;;;;;;;4.43;4.03;;;19.10;36.70;;;;;;5075839;28;20203;-83
2023/05/13 04:02:12;;;;;;;4.18;3.80;;;19.00;36.60;;;;;;5075951;28;20222;-83
2023/05/13 04:04:38;;;;;;;4.22;3.90;;;19.00;36.60;;;;;;5075841;28;20150;-83
2023/05/13 04:07:03;;;;;;;4.20;3.80;;;19.10;36.70;;;;;;5076460;28;20165;-83
2023/05/13 04:09:29;;;;;;;3.95;3.65;;;19.00;36.60;;;;;;5075799;28;20150;-82
2023/05/13 04:11:55;;;;;;;4.20;3.90;;;19.10;36.60;;;;;;5058941;28;20172;-83
2023/05/13 04:14:21;;;;;;;4.10;3.70;;;19.00;36.50;;;;;;5076823;28;20142;-82
2023/05/13 04:16:46;;;;;;;4.32;3.92;;;19.10;36.60;;;;;;5063119;28;20161;-83
2023/05/13 04:19:13;;;;;;;4.28;3.88;;;19.00;36.50;;;;;;5099244;28;20199;-83
2023/05/13 04:21:39;;;;;;;4.00;3.70;;;19.10;36.50;;;;;;5099228;28;20235;-83
2023/05/13 04:24:05;;;;;;;3.83;3.53;;;19.00;36.40;;;;;;5099601;28;20200;-82
2023/05/13 04:26:31;;;;;;;3.97;3.65;;;19.10;36.50;;;;;;5082417;28;20570;-83
2023/05/13 04:28:56;;;;;;;4.18;3.80;;;19.10;36.40;;;;;;5117172;28;20194;-83
2023/05/13 04:31:22;;;;;;;4.30;3.83;;;19.10;36.50;;;;;;5099177;28;20218;-84
2023/05/13 04:33:48;;;;;;;4.10;3.70;;;19.20;36.50;;;;;;5099400;28;20239;-83
2023/05/13 04:36:13;;;;;;;4.30;3.90;;;19.20;36.50;;;;;;5098971;28;20227;-83
2023/05/13 04:38:39;;;;;;;4.25;3.85;;;19.20;36.40;;;;;;5099156;28;20187;-83
2023/05/13 04:41:05;;;;;;;4.50;3.88;;;19.30;36.40;;;;;;5098937;28;20579;-83
2023/05/13 04:43:31;;;;;;;4.00;3.70;;;19.30;36.40;;;;;;5081981;28;20160;-83
2023/05/13 04:45:58;;;;;;;4.00;3.70;;;19.30;36.40;;;;;;5099031;28;20492;-83
2023/05/13 04:48:26;;;;;;;4.22;3.90;;;19.30;36.30;;;;;;5098574;28;20152;-84
2023/05/13 04:50:52;;;;;;;3.88;3.58;;;19.20;36.30;;;;;;5098550;28;20167;-83
2023/05/13 04:53:18;;;;;;;3.90;3.60;;;19.20;36.30;;;;;;5098620;28;20563;-83
2023/05/13 04:55:47;;;;;;;4.13;3.72;;;19.20;36.30;;;;;;5081562;28;20175;-83
2023/05/13 04:58:12;;;;;;;4.15;3.75;;;19.20;36.40;;;;;;5081574;28;20231;-83
2023/05/13 05:00:38;;;;;;;4.30;3.90;;;19.20;36.40;;;;;;5098306;28;20631;-83
2023/05/13 05:03:03;;;;;;;4.10;3.80;;;19.30;36.40;;;;;;5098024;28;20175;-83
2023/05/13 05:05:29;;;;;;;4.50;4.10;;;19.30;36.40;;;;;;5081935;28;20177;-83
2023/05/13 05:07:55;;;;;;;3.80;3.50;;;19.30;36.30;;;;;;5083408;28;20175;-82
2023/05/13 05:10:21;;;;;;;3.72;3.42;;;19.30;36.20;;;;;;5099690;28;20520;-83
2023/05/13 05:12:47;;;;;;;4.28;3.80;;;19.40;36.20;;;;;;5099397;28;20156;-83
2023/05/13 05:15:16;;;;;;;4.15;3.78;;;19.40;36.20;;;;;;5099827;28;20166;-82
2023/05/13 05:17:43;;;;;;;4.38;3.85;;;19.40;36.20;;;;;;5117721;28;20269;-84
2023/05/13 05:20:10;;;;;;;4.05;3.65;;;19.40;36.20;;;;;;5083029;28;20267;-83
2023/05/13 05:22:37;;;;;;;4.38;3.97;;;19.40;36.60;;;;;;5082211;28;20263;-83
2023/05/13 05:25:03;;;;;;;4.30;3.90;;;19.40;36.20;;;;;;5097674;28;20598;-82
2023/05/13 05:27:29;;;;;;;3.88;3.58;;;19.40;36.10;;;;;;5097845;28;20152;-83
2023/05/13 05:29:54;;;;;;;4.15;3.75;;;19.40;36.10;;;;;;5080905;28;20156;-83
2023/05/13 05:32:20;;;;;;;4.32;3.92;;;19.40;36.00;;;;;;5097984;28;20148;-82
2023/05/13 05:34:46;;;;;;;4.20;3.88;;;19.50;36.10;;;;;;5080979;28;20160;-82
2023/05/13 05:37:11;;;;;;;3.85;3.55;;;19.40;36.00;;;;;;5080592;28;20582;-83
2023/05/13 05:39:37;;;;;;;4.32;3.92;;;19.40;36.10;;;;;;5115675;28;20601;-83
2023/05/13 05:42:03;;;;;;;3.75;3.45;;;19.40;36.00;;;;;;5115577;28;20144;-84
2023/05/13 05:44:29;;;;;;;4.30;3.90;;;19.40;36.10;;;;;;5115439;28;20603;-83
2023/05/13 05:46:54;;;;;;;4.30;3.88;;;19.40;36.00;;;;;;5097251;28;20181;-83
2023/05/13 05:49:20;;;;;;;4.35;3.95;;;19.40;36.20;;;;;;5097230;28;20152;-83
2023/05/13 05:51:46;;;;;;;3.95;3.65;;;19.50;36.20;;;;;;5097184;28;20156;-83
2023/05/13 05:54:11;;;;;;;3.80;3.50;;;19.50;36.20;;;;;;5115426;28;20152;-84
2023/05/13 05:56:37;;;;;;;4.10;3.70;;;19.50;36.10;;;;;;5097322;28;20222;-82
2023/05/13 05:59:03;;;;;;;4.00;3.60;;;19.50;36.10;;;;;;5097113;28;20236;-82
2023/05/13 06:01:32;;;;;;;3.83;3.53;;;19.50;36.10;;;;;;5097162;28;20152;-83
2023/05/13 06:03:58;;;;;;;4.07;3.78;;;19.50;35.90;;;;;;5096208;28;20244;-83
2023/05/13 06:06:24;;;;;;;4.00;3.70;;;19.60;36.00;;;;;;5095262;28;20237;-83
2023/05/13 06:08:49;;;;;;;4.20;3.72;;;19.50;36.00;;;;;;5078573;28;20171;-83
2023/05/13 06:11:16;;;;;;;4.10;3.70;;;19.50;36.00;;;;;;5095264;28;20152;-83
2023/05/13 06:13:42;;;;;;;4.20;3.80;;;19.50;36.00;;;;;;5078503;28;20171;-83
2023/05/13 06:16:08;;;;;;;4.25;3.90;;;19.50;35.90;;;;;;5078449;28;20601;-83
2023/05/13 06:18:34;;;;;;;3.80;3.50;;;19.60;35.90;;;;;;5095752;28;20230;-83
2023/05/13 06:21:00;;;;;;;3.80;3.50;;;19.60;35.90;;;;;;5097315;28;20156;-83
2023/05/13 06:23:25;;;;;;;3.65;3.35;;;19.70;35.80;;;;;;5097011;28;20160;-83
2023/05/13 06:25:51;;;;;;;4.00;3.60;;;19.70;35.80;;;;;;5096975;28;20516;-84
2023/05/13 06:28:17;;;;;;;3.88;3.50;;;19.70;35.80;;;;;;5080465;28;20222;-83
2023/05/13 06:30:43;;;;;;;3.85;3.55;;;19.60;35.80;;;;;;5096955;28;20625;-84
2023/05/13 06:33:09;;;;;;;3.95;3.65;;;19.60;36.00;;;;;;5096973;28;20195;-84
2023/05/13 06:35:37;;;;;;;3.92;3.63;;;19.60;36.00;;;;;;5096871;28;20156;-84
2023/05/13 06:38:02;;;;;;;4.00;3.60;;;19.60;36.20;;;;;;5097001;28;20199;-84
2023/05/13 06:40:28;;;;;;;3.85;3.55;;;19.60;36.10;;;;;;5097036;28;20156;-83
2023/05/13 06:42:54;;;;;;;3.72;3.42;;;19.70;35.80;;;;;;5080125;28;20156;-84
2023/05/13 06:45:22;;;;;;;4.13;3.80;;;19.70;35.80;;;;;;5096873;28;20564;-83
2023/05/13 06:47:50;;;;;;;4.32;3.92;;;19.70;35.90;;;;;;5097495;28;20152;-84
2023/05/13 06:50:16;;;;;;;4.30;3.90;;;19.60;35.90;;;;;;5097106;28;20153;-84
2023/05/13 06:52:42;;;;;;;4.40;4.00;;;19.70;36.00;;;;;;5097007;28;20277;-85
2023/05/13 06:55:09;;;;;;;3.97;3.67;;;19.70;36.00;;;;;;5096717;28;20148;-84
2023/05/13 06:57:35;;;;;;;3.70;3.40;;;19.70;35.90;;;;;;5096842;28;20541;-84
2023/05/13 07:00:01;;;;;;;3.95;3.55;;;19.70;35.90;;;;;;5096582;28;20156;-85
2023/05/13 07:02:26;;;;;;;4.20;3.80;;;19.70;35.90;;;;;;5080054;28;20168;-83
2023/05/13 07:04:52;;;;;;;4.32;3.80;;;19.70;35.90;;;;;;5096264;28;20155;-83
2023/05/13 07:07:18;;;;;;;3.90;3.45;;;19.60;35.80;;;;;;5114411;28;20525;-83
2023/05/13 07:09:43;;;;;;;4.10;3.70;;;19.80;35.80;;;;;;5097652;28;20168;-84
2023/05/13 07:12:09;;;;;;;4.43;3.67;;;19.80;35.90;;;;;;5098538;28;20163;-83
2023/05/13 07:14:36;;;;;;;3.63;3.33;;;19.80;35.90;;;;;;5102651;27;20144;-83
2023/05/13 07:17:02;;;;;;;4.10;3.80;;;19.70;36.00;;;;;;5113683;28;20227;-83
2023/05/13 07:19:28;;;;;;;4.72;4.10;;;19.60;36.20;;;;;;5079773;28;20196;-83
2023/05/13 07:21:53;;;;;;;3.97;3.58;;;19.50;36.40;;;;;;5065201;28;20246;-84
2023/05/13 07:24:19;;;;;;;4.75;4.15;;;19.50;36.50;;;;;;5096511;28;20199;-84
2023/05/13 07:26:45;;;;;;;3.92;3.63;;;19.50;36.50;;;;;;5096626;28;20160;-84
2023/05/13 07:29:10;;;;;;;4.28;3.88;;;19.40;36.60;;;;;;5079036;28;20161;-84
2023/05/13 07:31:36;;;;;;;3.92;3.53;;;19.40;36.70;;;;;;5078507;28;20161;-84
2023/05/13 07:34:02;;;;;;;4.20;3.75;;;19.40;36.70;;;;;;5063321;28;20161;-84
2023/05/13 07:36:28;;;;;;;4.00;3.70;;;19.40;36.60;;;;;;5078244;28;20149;-85
2023/05/13 07:38:54;;;;;;;3.80;3.50;;;19.40;36.70;;;;;;5079321;28;20638;-83
2023/05/13 07:41:21;;;;;;;4.20;3.80;;;19.40;36.60;;;;;;5080570;28;20165;-85
2023/05/13 07:43:46;;;;;;;3.80;3.50;;;19.50;36.80;;;;;;5098576;28;20303;-84
2023/05/13 07:46:13;;;;;;;4.18;3.60;;;19.50;36.80;;;;;;5096354;28;20145;-85
2023/05/13 07:48:40;;;;;;;4.15;3.40;;;19.50;36.90;;;;;;5095896;28;20168;-85
2023/05/13 07:51:05;;;;;;;5.97;3.90;;;19.50;36.90;;;;;;5079401;28;20160;-84
2023/05/13 07:53:31;;;;;;;4.18;3.83;;;19.60;37.50;;;;;;5097443;28;20165;-84
2023/05/13 07:55:58;;;;;;;4.03;3.63;;;19.60;36.90;;;;;;5096547;28;20247;-85
2023/05/13 07:58:23;;;;;;;3.97;3.53;;;19.50;37.00;;;;;;5064528;28;20654;-85
2023/05/13 08:00:50;;;;;;;3.78;3.20;;;19.60;37.00;;;;;;5062170;28;20169;-84
2023/05/13 08:03:17;;;;;;;4.25;3.70;;;19.60;37.10;;;;;;5078724;28;20161;-83
2023/05/13 08:05:43;;;;;;;4.35;3.75;;;19.60;37.10;;;;;;5062236;28;20189;-84
2023/05/13 08:08:10;;;;;;;3.90;3.60;;;19.60;37.20;;;;;;5079471;28;20176;-84
2023/05/13 08:10:36;;;;;;;3.60;3.30;;;19.60;37.00;;;;;;5080685;28;20167;-85
2023/05/13 08:13:02;;;;;;;5.15;3.42;;;19.70;36.80;;;;;;5096806;28;20208;-83
2023/05/13 08:15:27;;;;;;;4.10;3.30;;;19.90;36.70;;;;;;5080026;28;20180;-85
2023/05/13 08:17:53;;;;;;;3.60;3.30;;;19.90;36.60;;;;;;5081748;28;20216;-85
2023/05/13 08:20:19;;;;;;;3.55;3.25;;;19.90;36.40;;;;;;5080373;28;20208;-84
2023/05/13 08:22:47;;;;;;;3.75;3.40;;;19.90;36.40;;;;;;5095793;28;20149;-85
2023/05/13 08:25:14;;;;;;;3.50;3.20;;;19.90;36.70;;;;;;5079618;28;20243;-84
2023/05/13 08:27:40;;;;;;;3.40;3.10;;;19.90;36.50;;;;;;5078413;28;20173;-84
2023/05/13 08:30:06;;;;;;;3.20;2.90;;;19.90;36.40;;;;;;5063037;28;20606;-83
2023/05/13 08:32:34;;;;;;;3.70;3.40;;;19.90;36.20;;;;;;5062417;28;20165;-84
2023/05/13 08:35:00;;;;;;;3.05;2.83;;;19.80;36.30;;;;;;5062589;28;20177;-83
2023/05/13 08:37:27;;;;;;;3.30;3.00;;;19.80;36.30;;;;;;5077713;28;20193;-84
2023/05/13 08:39:55;;;;;;;3.40;3.10;;;19.90;36.00;;;;;;5077428;28;20244;-85
2023/05/13 08:42:21;;;;;;;3.38;3.08;;;19.90;36.10;;;;;;5079819;28;20640;-84
2023/05/13 08:44:47;;;;;;;3.60;3.15;;;19.80;36.00;;;;;;5080391;28;20198;-84
2023/05/13 08:47:29;;;;;;;3.33;3.03;;;19.80;36.00;;;;;;5065544;28;20172;-84
2023/05/13 08:49:59;;;;;;;3.33;3.03;;;19.80;35.90;;;;;;5099566;28;20149;-84
2023/05/13 08:52:26;;;;;;;3.40;3.10;;;19.90;35.90;;;;;;5099553;28;20165;-84
2023/05/13 08:54:51;;;;;;;2.95;2.75;;;19.90;35.80;;;;;;5098689;28;20157;-84
2023/05/13 08:57:17;;;;;;;3.50;3.20;;;19.90;35.80;;;;;;5065811;28;20206;-84
2023/05/13 08:59:44;;;;;;;3.47;3.17;;;20.00;35.80;;;;;;5083470;28;20192;-84
2023/05/13 09:02:11;;;;;;;3.20;2.90;;;19.90;35.90;;;;;;5083174;28;20160;-84
2023/05/13 09:04:40;;;;;;;3.20;2.90;;;19.80;35.90;;;;;;5083749;28;20373;-84
2023/05/13 09:07:05;;;;;;;3.17;2.97;;;19.80;36.00;;;;;;5101614;28;20156;-84
2023/05/13 09:09:31;;;;;;;3.40;3.10;;;19.80;36.00;;;;;;5068473;28;20153;-84
2023/05/13 09:11:57;;;;;;;3.50;3.20;;;19.80;35.90;;;;;;5104514;28;20246;-84
2023/05/13 09:14:25;;;;;;;3.78;3.47;;;19.80;35.90;;;;;;5068412;28;20161;-84
2023/05/13 09:16:51;;;;;;;3.30;3.00;;;19.80;35.60;;;;;;5073095;27;20225;-84
2023/05/13 09:19:17;;;;;;;3.58;3.28;;;19.90;35.70;;;;;;5093810;27;20199;-84
2023/05/13 09:21:45;;;;;;;3.17;2.88;;;20.00;35.50;;;;;;5110679;27;20617;-83
2023/05/13 09:24:16;;;;;;;3.22;2.92;;;20.00;35.50;;;;;;5108838;27;20144;-84
2023/05/13 09:26:42;;;;;;;3.20;2.90;;;20.00;35.60;;;;;;5094936;27;20250;-84
2023/05/13 09:29:20;;;;;;;3.38;3.08;;;19.90;35.50;;;;;;5126170;27;20178;-84
2023/05/13 09:31:57;;;;;;;3.30;3.00;;;19.90;35.60;;;;;;5109223;27;20196;-84
2023/05/13 09:34:28;;;;;;;3.10;2.90;;;19.90;35.60;;;;;;5127350;27;20228;-85
2023/05/13 09:37:03;;;;;;;3.33;3.03;;;20.00;35.50;;;;;;5126639;27;20152;-84
2023/05/13 09:39:31;;;;;;;3.40;3.00;;;20.00;35.40;;;;;;5111331;27;20164;-83
2023/05/13 09:42:01;;;;;;;3.13;2.92;;;19.90;35.50;;;;;;5092337;27;20250;-84
2023/05/13 09:44:27;;;;;;;3.60;2.88;;;19.90;35.50;;;;;;5113471;27;20167;-85
2023/05/13 09:46:56;;;;;;;2.97;2.78;;;20.00;35.30;;;;;;5096709;27;20174;-86
2023/05/13 09:49:23;;;;;;;3.20;2.90;;;20.10;35.30;;;;;;5129762;27;20192;-87
2023/05/13 09:51:50;;;;;;;3.22;2.92;;;20.10;35.30;;;;;;5097713;27;20163;-85
2023/05/13 09:54:19;;;;;;;2.92;2.70;;;20.10;35.30;;;;;;5051930;28;20204;-85
2023/05/13 09:56:45;;;;;;;2.80;2.60;;;20.00;35.40;;;;;;4990995;28;20214;-86
2023/05/13 09:59:21;;;;;;;3.03;2.83;;;20.00;35.30;;;;;;5008912;28;20219;-87
2023/05/13 10:01:47;;;;;;;2.80;2.60;;;20.10;35.30;;;;;;4993283;28;20194;-85
2023/05/13 10:04:16;;;;;;;2.88;2.67;;;20.10;35.20;;;;;;5010074;28;20222;-85
2023/05/13 10:06:50;;;;;;;2.92;2.70;;;20.00;35.20;;;;;;4992140;28;20180;-86
2023/05/13 10:09:26;;;;;;;3.20;2.90;;;20.10;35.30;;;;;;4990509;28;20204;-86
2023/05/13 10:11:54;;;;;;;3.05;2.75;;;20.10;35.20;;;;;;4992383;28;20192;-86
2023/05/13 10:14:27;;;;;;;3.03;2.83;;;20.10;35.20;;;;;;4991428;28;20200;-86
2023/05/13 10:16:56;;;;;;;3.00;2.70;;;20.20;35.10;;;;;;4992162;28;20176;-86
2023/05/13 10:19:23;;;;;;;2.78;2.58;;;20.30;35.10;;;;;;4990040;28;20214;-85
2023/05/13 10:21:50;;;;;;;3.00;2.80;;;20.10;35.20;;;;;;4988980;28;20184;-86
2023/05/13 10:24:19;;;;;;;2.83;2.63;;;20.20;35.20;;;;;;4968154;28;20216;-84
2023/05/13 10:26:55;;;;;;;2.92;2.63;;;20.20;35.20;;;;;;4949794;29;20193;-85
2023/05/13 10:29:28;;;;;;;3.00;2.80;;;20.20;35.30;;;;;;4946369;29;20281;-83
2023/05/13 10:31:58;;;;;;;3.33;2.80;;;20.20;35.00;;;;;;4928636;29;20228;-86
2023/05/13 10:34:47;;;;;;;3.88;2.90;;;20.10;35.30;;;;;;4907099;29;20226;-86
2023/05/13 10:37:33;;;;;;;3.33;3.03;;;20.20;35.20;;;;;;4891346;29;20304;-87
2023/05/13 10:40:41;;;;;;;2.97;2.72;;;20.30;34.90;;;;;;4884788;29;20192;-86
2023/05/13 10:43:27;;;;;;;3.08;2.80;;;20.40;34.80;;;;;;4911654;29;20187;-87
2023/05/13 10:45:58;;;;;;;2.97;2.67;;;20.50;34.80;;;;;;4892212;29;20213;-84
2023/05/13 10:48:39;;;;;;;2.92;2.63;;;20.30;35.50;;;;;;4889296;29;20191;-84
2023/05/13 10:51:06;;;;;;;4.95;2.55;;;20.30;35.00;;;;;;4888650;29;20194;-84
2023/05/13 10:53:45;;;;;;;2.88;2.67;;;20.20;34.90;;;;;;4874282;29;20286;-84
2023/05/13 10:56:11;;;;;;;3.95;2.75;;;20.20;34.90;;;;;;4895631;29;20531;-84
2023/05/13 10:58:38;;;;;;;2.80;2.60;;;20.20;35.10;;;;;;4937082;29;20264;-85
2023/05/13 11:01:24;;;;;;;2.80;2.50;;;20.10;35.00;;;;;;4924413;29;20189;-84
2023/05/13 11:03:52;;;;;;;3.67;2.75;;;20.20;35.10;;;;;;4938782;29;20174;-84
2023/05/13 11:06:22;;;;;;;2.67;2.47;;;20.20;35.10;;;;;;5000434;28;20181;-84
2023/05/13 11:08:50;;;;;;;2.45;2.25;;;20.30;35.10;;;;;;5061683;28;20197;-84
2023/05/13 11:11:29;;;;;;;2.60;2.40;;;20.10;35.00;;;;;;5050208;28;20182;-84
2023/05/13 11:14:04;;;;;;;3.00;2.70;;;20.20;35.00;;;;;;5041717;28;20166;-84
2023/05/13 11:16:31;;;;;;;2.70;2.50;;;20.20;34.90;;;;;;5062306;28;20181;-85
2023/05/13 11:19:00;;;;;;;2.88;2.50;;;20.20;34.90;;;;;;5078184;28;20262;-85
2023/05/13 11:21:39;;;;;;;2.72;2.47;;;20.20;34.90;;;;;;5077995;28;20211;-84
2023/05/13 11:24:06;;;;;;;3.03;2.60;;;20.20;34.90;;;;;;5092980;28;20184;-84
2023/05/13 11:26:50;;;;;;;2.83;2.50;;;20.20;34.90;;;;;;5093686;28;20213;-84
2023/05/13 11:29:30;;;;;;;3.00;2.70;;;20.20;34.80;;;;;;5121729;28;20171;-85
2023/05/13 11:31:57;;;;;;;2.78;2.55;;;20.20;34.70;;;;;;5083348;28;20186;-84
2023/05/13 11:34:25;;;;;;;4.07;2.65;;;20.20;34.60;;;;;;5087123;28;20164;-83
2023/05/13 11:36:54;;;;;;;2.38;2.28;;;20.20;34.60;;;;;;5120551;28;20156;-85
2023/05/13 11:39:21;;;;;;;2.85;2.65;;;20.30;34.70;;;;;;5118515;28;20194;-84
2023/05/13 11:41:49;;;;;;;3.22;2.15;;;20.30;34.70;;;;;;5101741;28;20308;-83
2023/05/13 11:44:17;;;;;;;3.25;2.47;;;20.30;34.70;;;;;;5099213;28;20160;-85
2023/05/13 11:46:50;;;;;;;2.60;2.40;;;20.20;34.60;;;;;;5117042;28;20161;-85
2023/05/13 11:49:32;;;;;;;2.72;2.50;;;20.20;34.50;;;;;;5119268;28;20160;-84
2023/05/13 11:52:00;;;;;;;4.72;2.60;;;20.20;34.60;;;;;;5121238;28;20148;-85
2023/05/13 11:54:26;;;;;;;2.85;2.60;;;20.30;34.50;;;;;;5107461;28;20144;-84
2023/05/13 11:57:19;;;;;;;3.08;2.78;;;20.30;34.40;;;;;;5110956;28;20161;-85
2023/05/13 11:59:57;;;;;;;3.40;2.50;;;20.30;34.50;;;;;;5118515;28;20206;-83
2023/05/13 12:02:24;;;;;;;2.50;2.30;;;20.40;34.40;;;;;;5109081;28;20224;-85
2023/05/13 12:04:51;;;;;;;3.40;2.72;;;20.40;34.40;;;;;;5088506;28;20581;-84
2023/05/13 12:07:22;;;;;;;3.55;2.70;;;20.40;34.30;;;;;;5088526;28;20164;-85
2023/05/13 12:09:49;;;;;;;4.45;2.70;;;20.40;34.30;;;;;;5106397;28;20176;-83
2023/05/13 12:12:15;;;;;;;2.63;2.42;;;20.40;34.40;;;;;;5088403;28;20152;-84
2023/05/13 12:14:45;;;;;;;2.75;2.42;;;20.40;34.40;;;;;;5121899;28;20155;-85
2023/05/13 12:17:12;;;;;;;3.10;2.30;;;20.40;34.30;;;;;;5085474;28;20222;-84
2023/05/13 12:19:38;;;;;;;3.72;2.60;;;20.30;34.30;;;;;;5088586;28;20203;-85
2023/05/13 12:22:05;;;;;;;2.33;2.13;;;20.30;34.40;;;;;;5071253;28;20177;-84
2023/05/13 12:24:32;;;;;;;3.05;2.60;;;20.30;34.40;;;;;;5104908;28;20642;-85
2023/05/13 12:27:06;;;;;;;2.65;2.45;;;20.30;34.40;;;;;;5072879;28;20239;-84
2023/05/13 12:29:41;;;;;;;2.50;2.30;;;20.30;34.40;;;;;;5086691;28;20152;-84
2023/05/13 12:32:08;;;;;;;2.70;2.50;;;20.40;34.10;;;;;;5088456;28;20625;-84
2023/05/13 12:34:34;;;;;;;2.67;2.47;;;20.30;34.10;;;;;;5088973;28;20148;-84
2023/05/13 12:37:14;;;;;;;2.40;2.20;;;20.40;34.10;;;;;;5086468;28;20209;-84
2023/05/13 12:39:41;;;;;;;2.65;2.45;;;20.40;34.10;;;;;;5073241;28;20707;-83
2023/05/13 12:42:19;;;;;;;2.85;2.60;;;20.40;34.10;;;;;;5107561;28;20179;-82
2023/05/13 12:44:44;;;;;;;2.58;2.20;;;20.40;34.10;;;;;;5109296;28;20153;-83
2023/05/13 12:47:11;;;;;;;3.05;2.38;;;20.40;34.00;;;;;;5089936;28;20168;-84
2023/05/13 12:49:50;;;;;;;2.80;2.60;;;20.40;33.90;;;;;;5106132;28;20153;-83
2023/05/13 12:52:17;;;;;;;2.50;2.30;;;20.40;34.10;;;;;;5104428;28;20148;-83